Time;durP1;ratioP1;P1;durP2;ratioP2;P2;SDS_P1;SDS_P2;PMS_P1;PMS_P2;Temp;Humidity;BMP_temperature;BMP_pressure;BME280_temperature;BME280_humidity;BME280_pressure;Samples;Min_cycle;Max_cycle;Signal;HPM_P1;HPM_P2
2022/05/21 00:01:32;;;;;;;35.28;18.85;;;10.20;99.90;;;;;;5034312;28;20049;-85
2022/05/21 00:03:58;;;;;;;55.65;22.55;;;10.20;99.90;;;;;;5033748;28;20399;-84
2022/05/21 00:06:24;;;;;;;35.75;17.27;;;10.20;99.90;;;;;;5034206;28;20053;-83
2022/05/21 00:08:50;;;;;;;38.97;21.23;;;10.20;99.90;;;;;;5032805;28;20053;-83
2022/05/21 00:11:15;;;;;;;50.30;22.25;;;10.20;99.90;;;;;;5034273;28;20050;-84
2022/05/21 00:13:41;;;;;;;46.03;21.10;;;10.20;99.90;;;;;;5034248;28;20441;-84
2022/05/21 00:16:09;;;;;;;48.38;22.15;;;10.20;99.90;;;;;;5033714;28;20053;-84
2022/05/21 00:18:35;;;;;;;54.65;22.20;;;10.30;99.90;;;;;;5033976;28;20507;-83
2022/05/21 00:21:01;;;;;;;57.78;23.30;;;10.30;99.90;;;;;;5034211;28;20054;-82
2022/05/21 00:23:32;;;;;;;49.53;25.73;;;10.30;99.90;;;;;;5033722;28;20037;-82
2022/05/21 00:26:06;;;;;;;42.58;23.20;;;10.40;99.90;;;;;;5033562;28;20045;-83
2022/05/21 00:28:33;;;;;;;54.60;24.00;;;10.90;99.90;;;;;;5033583;28;20509;-86
2022/05/21 00:31:00;;;;;;;44.40;23.73;;;10.60;99.90;;;;;;5033855;28;20068;-84
2022/05/21 00:33:27;;;;;;;53.55;26.85;;;10.60;99.90;;;;;;5033239;28;20045;-83
2022/05/21 00:35:53;;;;;;;60.47;27.80;;;10.60;99.90;;;;;;5032598;28;20491;-82
2022/05/21 00:38:19;;;;;;;63.03;28.35;;;10.60;99.90;;;;;;5033875;28;20071;-83
2022/05/21 00:40:46;;;;;;;61.60;27.05;;;10.60;99.90;;;;;;5032568;28;20053;-83
2022/05/21 00:43:37;;;;;;;60.00;28.00;;;10.60;99.90;;;;;;5033843;28;20139;-84
2022/05/21 00:46:05;;;;;;;53.58;26.17;;;10.50;99.90;;;;;;5032846;28;20045;-83
2022/05/21 00:48:34;;;;;;;59.30;26.70;;;10.70;99.90;;;;;;5032845;28;20107;-84
2022/05/21 00:51:00;;;;;;;61.35;27.52;;;10.50;99.90;;;;;;5032632;28;20041;-84
2022/05/21 00:53:27;;;;;;;60.70;28.83;;;10.40;99.90;;;;;;5033328;28;20041;-85
2022/05/21 00:55:53;;;;;;;73.00;28.52;;;10.40;99.90;;;;;;5033296;28;20048;-83
2022/05/21 01:01:07;;;;;;;74.63;28.58;;;10.40;99.90;;;;;;5032527;28;20056;-83
2022/05/21 01:03:36;;;;;;;69.53;31.40;;;10.40;99.90;;;;;;5033250;28;20098;-83
2022/05/21 01:06:03;;;;;;;59.00;28.35;;;10.40;99.90;;;;;;5032630;28;20048;-86
2022/05/21 01:08:29;;;;;;;88.43;33.65;;;10.30;99.90;;;;;;5032768;28;20041;-84
2022/05/21 01:11:02;;;;;;;65.88;31.92;;;10.50;99.90;;;;;;5019213;28;20537;-83
2022/05/21 01:13:33;;;;;;;81.22;34.60;;;10.40;99.90;;;;;;5031324;28;20057;-81
2022/05/21 01:15:59;;;;;;;;;;;10.40;99.90;;;;;;5033692;28;20060;-84
2022/05/21 01:18:25;;;;;;;85.97;35.35;;;10.50;99.90;;;;;;5028437;28;20303;-83
2022/05/21 01:20:57;;;;;;;86.03;35.95;;;10.60;99.90;;;;;;5015513;28;20045;-83
2022/05/21 01:23:22;;;;;;;;;;;10.80;99.90;;;;;;5032151;28;20490;-84
2022/05/21 01:25:49;;;;;;;83.40;33.75;;;10.70;99.90;;;;;;5031487;28;19940;-80
2022/05/21 01:28:20;;;;;;;72.07;33.65;;;10.70;99.90;;;;;;5019639;28;20061;-82
2022/05/21 01:30:47;;;;;;;;;;;10.80;99.90;;;;;;5033477;28;20045;-82
2022/05/21 01:33:15;;;;;;;52.83;29.10;;;10.90;99.90;;;;;;5032846;28;19924;-82
2022/05/21 01:35:43;;;;;;;66.80;31.67;;;10.90;99.90;;;;;;5031237;28;20404;-83
2022/05/21 01:38:10;;;;;;;66.00;32.60;;;10.90;99.90;;;;;;5030907;28;20041;-83
2022/05/21 01:40:37;;;;;;;74.80;35.17;;;11.10;99.90;;;;;;5031562;28;20111;-81
2022/05/21 01:45:51;;;;;;;87.97;36.15;;;11.10;99.90;;;;;;5031790;28;20398;-82
2022/05/21 01:48:19;;;;;;;71.93;35.22;;;11.10;99.90;;;;;;5031633;28;20469;-81
2022/05/21 01:50:45;;;;;;;72.10;36.83;;;11.20;99.90;;;;;;5031186;28;20081;-83
2022/05/21 01:53:11;;;;;;;78.18;37.17;;;11.20;99.90;;;;;;5030681;28;20064;-80
2022/05/21 01:55:38;;;;;;;91.93;39.72;;;11.20;99.90;;;;;;5032606;28;20050;-82
2022/05/21 01:58:04;;;;;;;95.28;40.65;;;11.30;99.90;;;;;;5032065;28;20129;-82
2022/05/21 02:00:30;;;;;;;72.90;36.80;;;11.30;99.90;;;;;;5031333;28;20056;-82
2022/05/21 02:02:56;;;;;;;88.72;40.75;;;11.30;99.90;;;;;;5032399;28;20045;-81
2022/05/21 02:05:21;;;;;;;69.60;39.75;;;11.30;99.90;;;;;;5031522;28;20045;-86
2022/05/21 02:07:47;;;;;;;84.88;41.75;;;11.70;99.90;;;;;;5031979;28;20037;-83
2022/05/21 02:10:13;;;;;;;83.47;39.00;;;11.30;99.90;;;;;;5031071;28;20537;-81
2022/05/21 02:12:39;;;;;;;59.83;35.85;;;11.40;99.90;;;;;;5032345;28;20502;-85
2022/05/21 02:15:06;;;;;;;68.10;38.88;;;11.40;99.90;;;;;;5032008;28;20199;-83
2022/05/21 02:17:32;;;;;;;65.72;37.90;;;11.40;99.90;;;;;;5031257;28;20056;-82
2022/05/21 02:19:58;;;;;;;71.22;39.30;;;11.40;99.90;;;;;;5032023;28;20483;-83
2022/05/21 02:22:23;;;;;;;65.38;37.88;;;11.70;99.90;;;;;;5027502;28;20510;-83
2022/05/21 02:24:49;;;;;;;61.38;36.30;;;11.60;99.90;;;;;;5026081;28;20052;-83
2022/05/21 02:27:15;;;;;;;71.82;38.80;;;11.70;99.90;;;;;;5010144;28;20482;-82
2022/05/21 02:29:42;;;;;;;78.93;39.13;;;11.50;99.90;;;;;;5031612;28;20124;-81
2022/05/21 02:32:08;;;;;;;68.63;39.22;;;11.60;99.90;;;;;;5030792;28;20045;-81
2022/05/21 02:34:37;;;;;;;61.83;35.50;;;11.50;99.90;;;;;;5030467;28;20071;-83
2022/05/21 02:39:47;;;;;;;81.97;37.50;;;11.50;99.90;;;;;;5030783;28;20187;-81
2022/05/21 02:44:57;;;;;;;43.80;31.58;;;11.60;99.90;;;;;;5047253;28;20107;-82
2022/05/21 02:47:25;;;;;;;64.05;35.70;;;11.50;99.90;;;;;;5031802;28;20053;-84
2022/05/21 02:49:50;;;;;;;73.55;36.40;;;11.50;99.90;;;;;;5032146;28;20060;-82
2022/05/21 02:52:17;;;;;;;58.33;32.92;;;11.60;99.90;;;;;;5031348;28;20045;-82
2022/05/21 02:54:43;;;;;;;60.70;34.55;;;11.50;99.90;;;;;;5031678;28;20045;-81
2022/05/21 02:57:10;;;;;;;66.38;35.15;;;11.50;99.90;;;;;;5031886;28;20050;-82
2022/05/21 02:59:39;;;;;;;69.35;34.10;;;11.50;99.90;;;;;;5030375;28;20057;-82
2022/05/21 03:02:08;;;;;;;75.88;34.55;;;11.60;99.90;;;;;;5010712;28;20121;-82
2022/05/21 03:04:34;;;;;;;70.75;35.92;;;11.50;99.90;;;;;;5026748;28;20049;-82
2022/05/21 03:07:02;;;;;;;57.78;32.45;;;11.50;99.90;;;;;;5031878;28;20563;-81
2022/05/21 03:12:12;;;;;;;59.65;30.55;;;11.60;99.90;;;;;;5031066;28;20056;-82
2022/05/21 03:14:38;;;;;;;71.18;32.50;;;11.60;99.90;;;;;;5031562;28;20054;-88
2022/05/21 03:17:05;;;;;;;58.17;30.35;;;11.60;99.90;;;;;;5026410;28;20058;-83
2022/05/21 03:19:33;;;;;;;50.72;27.38;;;11.60;99.90;;;;;;5012199;28;20045;-80
2022/05/21 03:21:59;;;;;;;52.10;29.23;;;11.70;99.90;;;;;;5015450;28;20048;-83
2022/05/21 03:24:26;;;;;;;48.78;28.10;;;11.70;99.90;;;;;;5031353;28;20041;-82
2022/05/21 03:26:52;;;;;;;48.10;25.80;;;11.70;99.90;;;;;;5009550;28;20066;-82
2022/05/21 03:29:18;;;;;;;56.25;26.40;;;11.70;99.90;;;;;;5026721;28;20057;-81
2022/05/21 03:31:43;;;;;;;50.65;24.80;;;11.70;99.90;;;;;;5016877;28;20045;-80
2022/05/21 03:34:09;;;;;;;49.10;25.55;;;11.70;99.90;;;;;;5031084;28;20099;-87
2022/05/21 03:36:36;;;;;;;44.90;22.63;;;11.70;99.90;;;;;;5032361;28;20403;-83
2022/05/21 03:39:03;;;;;;;43.25;21.10;;;11.80;99.90;;;;;;5034845;28;20052;-81
2022/05/21 03:41:29;;;;;;;40.10;20.65;;;11.70;99.90;;;;;;5034893;28;20046;-81
2022/05/21 03:43:55;;;;;;;43.63;20.95;;;11.80;99.90;;;;;;5034722;28;20125;-81
2022/05/21 03:46:21;;;;;;;51.80;19.50;;;11.80;99.90;;;;;;5029660;28;20092;-82
2022/05/21 03:48:47;;;;;;;43.15;18.23;;;12.20;99.90;;;;;;5032298;28;20042;-81
2022/05/21 03:51:13;;;;;;;39.10;16.83;;;11.80;99.90;;;;;;5034557;28;20160;-82
2022/05/21 03:53:39;;;;;;;46.78;17.80;;;11.90;99.90;;;;;;5032240;28;20200;-82
2022/05/21 03:56:05;;;;;;;40.95;15.80;;;11.90;99.90;;;;;;5034264;28;20045;-85
2022/05/21 03:58:31;;;;;;;38.75;15.15;;;11.90;99.90;;;;;;5033707;28;20050;-82
2022/05/21 04:00:57;;;;;;;44.15;14.13;;;11.90;99.90;;;;;;5033162;28;20134;-83
2022/05/21 04:03:24;;;;;;;39.08;15.02;;;12.00;99.90;;;;;;5032449;28;20562;-82
2022/05/21 04:05:53;;;;;;;38.10;14.38;;;12.00;99.90;;;;;;5034088;28;20088;-82
2022/05/21 04:08:19;;;;;;;39.38;13.80;;;12.00;99.90;;;;;;5033296;28;20049;-81
2022/05/21 04:10:44;;;;;;;34.83;13.45;;;12.00;99.90;;;;;;5033412;28;20064;-82
2022/05/21 04:13:10;;;;;;;33.85;12.50;;;12.00;99.90;;;;;;5034215;28;20040;-81
2022/05/21 04:15:36;;;;;;;41.33;13.70;;;12.10;99.90;;;;;;5034237;28;20445;-84
2022/05/21 04:18:02;;;;;;;37.50;11.95;;;12.10;99.90;;;;;;5034101;28;20060;-83
2022/05/21 04:20:27;;;;;;;29.77;10.85;;;12.00;99.90;;;;;;5032509;28;20049;-82
2022/05/21 04:22:53;;;;;;;35.78;13.00;;;12.10;99.90;;;;;;5049527;28;20414;-81
2022/05/21 04:25:19;;;;;;;36.40;12.48;;;12.10;99.90;;;;;;5034259;28;20067;-80
2022/05/21 04:27:45;;;;;;;29.08;9.50;;;12.10;99.90;;;;;;5012172;28;20391;-81
2022/05/21 04:30:18;;;;;;;35.60;11.25;;;12.20;99.90;;;;;;5033150;28;20059;-82
2022/05/21 04:32:44;;;;;;;36.22;9.27;;;12.10;99.90;;;;;;5034006;28;20049;-82
2022/05/21 04:35:11;;;;;;;26.52;8.98;;;12.40;99.90;;;;;;5033548;28;20124;-82
2022/05/21 04:37:38;;;;;;;27.38;8.57;;;12.20;99.90;;;;;;5034136;28;20049;-84
2022/05/21 04:40:10;;;;;;;32.90;8.20;;;12.20;99.90;;;;;;5034047;28;20146;-82
2022/05/21 04:42:35;;;;;;;31.13;7.40;;;12.20;99.90;;;;;;5033071;28;20099;-82
2022/05/21 04:45:03;;;;;;;21.58;6.03;;;12.20;99.90;;;;;;5033488;28;20049;-83
2022/05/21 04:47:28;;;;;;;22.30;5.57;;;12.20;99.90;;;;;;5016485;28;20111;-81
2022/05/21 04:49:54;;;;;;;19.92;4.90;;;12.20;99.90;;;;;;5015975;28;20443;-81
2022/05/21 04:52:20;;;;;;;22.50;4.18;;;12.20;99.90;;;;;;5015036;28;20057;-82
2022/05/21 04:54:45;;;;;;;28.30;4.88;;;12.20;99.90;;;;;;5033211;28;20069;-81
2022/05/21 04:57:11;;;;;;;24.17;4.82;;;12.30;99.90;;;;;;5032564;28;20053;-82
2022/05/21 04:59:37;;;;;;;21.98;4.13;;;12.20;99.90;;;;;;5032543;28;20049;-83
2022/05/21 05:02:02;;;;;;;23.35;3.92;;;12.20;99.90;;;;;;5032549;28;20049;-83
2022/05/21 05:04:28;;;;;;;23.08;4.13;;;12.30;99.90;;;;;;5033301;28;20104;-82
2022/05/21 05:06:54;;;;;;;21.40;4.13;;;12.30;99.90;;;;;;5032949;28;20414;-83
2022/05/21 05:09:22;;;;;;;18.40;4.05;;;12.40;99.90;;;;;;5032144;28;20467;-83
2022/05/21 05:11:49;;;;;;;21.88;3.97;;;12.40;99.90;;;;;;5031307;28;20049;-82
2022/05/21 05:14:15;;;;;;;22.30;4.15;;;12.40;99.90;;;;;;5033282;28;20152;-81
2022/05/21 05:16:41;;;;;;;19.42;3.90;;;12.50;99.90;;;;;;5031309;28;20124;-81
2022/05/21 05:19:09;;;;;;;24.23;4.18;;;12.60;99.90;;;;;;5032198;28;20053;-83
2022/05/21 05:21:35;;;;;;;20.20;3.55;;;12.70;99.90;;;;;;5032876;28;20116;-82
2022/05/21 05:24:01;;;;;;;19.98;3.55;;;12.80;99.90;;;;;;5032999;28;20038;-84
2022/05/21 05:26:29;;;;;;;20.23;4.15;;;13.00;99.90;;;;;;5032003;28;20060;-83
2022/05/21 05:28:55;;;;;;;22.10;3.72;;;12.80;99.90;;;;;;5008891;28;20140;-82
2022/05/21 05:31:21;;;;;;;15.10;2.90;;;12.80;99.90;;;;;;5031017;28;20169;-83
2022/05/21 05:33:46;;;;;;;24.23;3.67;;;12.80;99.90;;;;;;5022129;28;20076;-82
2022/05/21 05:36:12;;;;;;;18.65;3.63;;;12.80;99.90;;;;;;5032763;28;20045;-82
2022/05/21 05:38:38;;;;;;;19.35;3.85;;;12.80;99.90;;;;;;5032208;28;20049;-83
2022/05/21 05:41:09;;;;;;;24.75;3.78;;;12.80;99.90;;;;;;5032812;28;20045;-81
2022/05/21 05:43:35;;;;;;;24.08;3.88;;;12.90;99.90;;;;;;5015551;28;20056;-84
2022/05/21 05:46:01;;;;;;;23.55;3.95;;;12.90;99.90;;;;;;5031758;28;20057;-86
2022/05/21 05:48:28;;;;;;;25.58;3.63;;;12.90;99.90;;;;;;5032470;28;20103;-83
2022/05/21 05:50:55;;;;;;;19.08;3.30;;;13.00;99.90;;;;;;5011893;28;20057;-82
2022/05/21 05:53:22;;;;;;;16.92;2.97;;;13.00;99.90;;;;;;5031869;28;20120;-82
2022/05/21 05:55:48;;;;;;;19.60;3.13;;;12.90;99.90;;;;;;5032335;28;20045;-83
2022/05/21 06:01:07;;;;;;;12.63;2.88;;;12.90;99.90;;;;;;5050093;28;20060;-83
2022/05/21 06:03:34;;;;;;;18.83;3.15;;;12.80;99.90;;;;;;5049759;28;20064;-83
2022/05/21 06:06:01;;;;;;;15.73;3.10;;;12.80;99.90;;;;;;5067066;28;20072;-84
2022/05/21 06:08:26;;;;;;;17.17;3.05;;;13.00;99.90;;;;;;5049963;28;20492;-82
2022/05/21 06:10:52;;;;;;;22.50;3.40;;;13.00;99.90;;;;;;5033469;28;20080;-83
2022/05/21 06:13:18;;;;;;;19.52;3.47;;;13.10;99.90;;;;;;5050545;28;20506;-84
2022/05/21 06:15:44;;;;;;;12.68;2.85;;;13.30;99.90;;;;;;5034677;28;20045;-85
2022/05/21 06:18:13;;;;;;;18.85;3.60;;;13.40;99.90;;;;;;5050029;28;20060;-82
2022/05/21 06:20:40;;;;;;;13.95;2.70;;;13.40;99.90;;;;;;5049643;28;20057;-83
2022/05/21 06:23:06;;;;;;;17.00;3.22;;;13.40;99.90;;;;;;5050087;28;20041;-82
2022/05/21 06:25:35;;;;;;;16.98;3.05;;;13.50;99.90;;;;;;5032728;28;20064;-82
2022/05/21 06:28:02;;;;;;;18.67;2.80;;;13.60;99.90;;;;;;5049764;28;20056;-83
2022/05/21 06:30:30;;;;;;;18.27;3.22;;;13.80;99.90;;;;;;5027250;28;20169;-84
2022/05/21 06:32:57;;;;;;;16.98;3.13;;;14.10;99.90;;;;;;5049830;28;20052;-81
2022/05/21 06:35:23;;;;;;;15.60;3.20;;;14.00;99.90;;;;;;5049650;28;20049;-81
2022/05/21 06:37:49;;;;;;;16.27;2.88;;;14.00;99.90;;;;;;5042585;28;20183;-81
2022/05/21 06:40:16;;;;;;;16.38;2.97;;;14.20;99.90;;;;;;5031954;28;20514;-83
2022/05/21 06:42:41;;;;;;;18.95;3.20;;;14.20;99.90;;;;;;5030933;28;20075;-82
2022/05/21 06:45:11;;;;;;;14.15;2.80;;;14.30;99.90;;;;;;5031435;28;20080;-82
2022/05/21 06:47:39;;;;;;;13.90;2.78;;;14.90;99.90;;;;;;5031885;28;20053;-82
2022/05/21 06:50:06;;;;;;;11.90;2.70;;;15.20;99.90;;;;;;5014831;28;20049;-82
2022/05/21 06:52:32;;;;;;;14.40;3.00;;;15.40;99.90;;;;;;5032263;28;20049;-83
2022/05/21 06:55:01;;;;;;;17.13;2.47;;;15.50;99.90;;;;;;5032177;28;20056;-83
2022/05/21 06:57:28;;;;;;;10.80;2.00;;;15.80;99.90;;;;;;5031766;28;20049;-82
2022/05/21 06:59:54;;;;;;;16.75;2.92;;;16.10;99.90;;;;;;5032423;28;20054;-82
2022/05/21 07:02:19;;;;;;;10.63;2.65;;;16.40;99.90;;;;;;5031841;28;20065;-81
2022/05/21 07:07:32;;;;;;;15.52;2.67;;;16.50;99.90;;;;;;5030983;28;20060;-83
2022/05/21 07:10:00;;;;;;;13.55;2.78;;;16.00;99.90;;;;;;5030248;28;20053;-83
2022/05/21 07:12:26;;;;;;;11.95;2.50;;;15.60;99.90;;;;;;5034257;28;20394;-82
2022/05/21 07:14:51;;;;;;;11.93;2.53;;;15.70;99.90;;;;;;5034699;28;20049;-82
2022/05/21 07:17:17;;;;;;;11.65;2.10;;;16.50;99.90;;;;;;5036742;28;20107;-81
2022/05/21 07:19:43;;;;;;;12.30;2.10;;;17.00;99.90;;;;;;5035722;28;20144;-81
2022/05/21 07:22:09;;;;;;;14.02;2.83;;;17.50;99.90;;;;;;5035189;28;20045;-82
2022/05/21 07:24:39;;;;;;;11.35;2.47;;;17.30;99.90;;;;;;5036267;28;20049;-83
2022/05/21 07:27:05;;;;;;;11.68;2.28;;;17.30;99.90;;;;;;5038606;28;20053;-83
2022/05/21 07:29:31;;;;;;;15.07;2.30;;;16.70;99.90;;;;;;5035686;28;20056;-82
2022/05/21 07:31:56;;;;;;;11.80;2.58;;;16.60;99.90;;;;;;5015435;28;20060;-81
2022/05/21 07:34:22;;;;;;;14.38;2.47;;;17.00;99.90;;;;;;5037490;28;20099;-82
2022/05/21 07:36:48;;;;;;;11.90;2.00;;;16.90;99.90;;;;;;5035861;28;20037;-80
2022/05/21 07:39:14;;;;;;;10.48;2.13;;;17.70;99.90;;;;;;5035530;28;20060;-83
2022/05/21 07:41:42;;;;;;;11.75;2.28;;;18.10;99.90;;;;;;5034748;28;20067;-83
2022/05/21 07:44:08;;;;;;;14.27;2.45;;;18.00;99.90;;;;;;5033845;28;20062;-82
2022/05/21 07:46:34;;;;;;;7.50;1.88;;;18.40;99.90;;;;;;5034729;28;20057;-88
2022/05/21 07:49:00;;;;;;;13.98;1.90;;;19.20;99.90;;;;;;5034918;28;20083;-83
2022/05/21 07:51:26;;;;;;;13.43;2.20;;;19.40;99.90;;;;;;5034753;28;20095;-87
2022/05/21 07:53:52;;;;;;;10.45;2.70;;;18.70;99.90;;;;;;5033499;28;20045;-83
2022/05/21 07:56:18;;;;;;;11.02;2.33;;;18.10;99.90;;;;;;5033359;28;20077;-83
2022/05/21 07:58:44;;;;;;;12.25;1.92;;;17.20;99.90;;;;;;5035008;28;20045;-83
2022/05/21 08:01:11;;;;;;;8.63;1.65;;;16.80;99.90;;;;;;5034920;28;20049;-84
2022/05/21 08:03:38;;;;;;;11.55;2.13;;;17.00;99.90;;;;;;5033908;28;20095;-83
2022/05/21 08:06:04;;;;;;;9.57;2.10;;;17.20;99.90;;;;;;5017720;28;20062;-83
2022/05/21 08:08:30;;;;;;;14.32;2.30;;;17.10;99.90;;;;;;5033836;28;20507;-83
2022/05/21 08:10:56;;;;;;;10.57;2.60;;;16.80;99.90;;;;;;5034470;28;20056;-82
2022/05/21 08:13:21;;;;;;;8.32;1.70;;;17.00;99.90;;;;;;5034692;28;20045;-83
2022/05/21 08:15:47;;;;;;;9.23;1.77;;;18.00;99.90;;;;;;5033786;28;20045;-82
2022/05/21 08:18:13;;;;;;;12.13;2.15;;;19.20;99.90;;;;;;5033379;28;20049;-83
2022/05/21 08:20:39;;;;;;;9.70;1.88;;;20.20;99.90;;;;;;5034486;28;20053;-88
2022/05/21 08:28:35;;;;;;;6.45;1.42;;;18.10;99.90;;;;;;5033470;28;20081;-82
2022/05/21 08:31:03;;;;;;;10.80;2.00;;;17.10;99.90;;;;;;5033457;28;20053;-82
2022/05/21 08:33:29;;;;;;;9.15;1.58;;;17.00;99.90;;;;;;5034249;28;20057;-82
2022/05/21 08:35:54;;;;;;;9.48;1.65;;;17.60;99.90;;;;;;5033219;28;20254;-85
2022/05/21 08:38:20;;;;;;;8.63;1.92;;;17.40;99.90;;;;;;5016631;28;20132;-83
2022/05/21 08:40:58;;;;;;;8.80;1.60;;;17.70;99.90;;;;;;5034410;28;20132;-83
2022/05/21 08:43:50;;;;;;;10.77;2.00;;;17.90;99.90;;;;;;5033078;28;20049;-82
2022/05/21 08:46:44;;;;;;;9.10;1.60;;;17.80;99.90;;;;;;5015212;28;20148;-83
2022/05/21 08:49:13;;;;;;;6.60;2.08;;;17.40;99.90;;;;;;4973144;28;20086;-82
2022/05/21 08:52:17;;;;;;;6.70;2.33;;;17.60;99.90;;;;;;4972868;28;20102;-83
2022/05/21 08:54:46;;;;;;;9.63;1.67;;;18.60;99.90;;;;;;4956758;28;20054;-83
2022/05/21 08:57:41;;;;;;;10.23;2.05;;;18.30;99.90;;;;;;4956750;28;20063;-85
2022/05/21 09:00:20;;;;;;;6.50;1.52;;;17.60;99.90;;;;;;4972822;28;20058;-82
2022/05/21 09:02:47;;;;;;;10.07;1.80;;;17.30;99.90;;;;;;4956596;28;20043;-83
2022/05/21 09:05:15;;;;;;;11.80;1.95;;;17.20;99.90;;;;;;4972729;28;20066;-82
2022/05/21 09:08:31;;;;;;;10.18;1.90;;;17.20;99.90;;;;;;4972463;28;20080;-83
2022/05/21 09:10:58;;;;;;;8.07;1.67;;;17.90;99.90;;;;;;4972445;28;20066;-82
2022/05/21 09:14:03;;;;;;;4.70;1.10;;;19.00;99.90;;;;;;4972408;28;20059;-85
2022/05/21 09:16:54;;;;;;;7.95;1.60;;;19.40;99.90;;;;;;4956575;28;20062;-82
2022/05/21 09:19:21;;;;;;;8.23;2.00;;;19.10;99.90;;;;;;4972411;28;20109;-82
2022/05/21 09:21:58;;;;;;;9.50;1.80;;;19.20;99.90;;;;;;4972352;28;20137;-82
2022/05/21 09:24:41;;;;;;;7.43;1.40;;;20.10;99.90;;;;;;4956290;28;20062;-83
2022/05/21 09:27:29;;;;;;;7.75;1.63;;;21.20;99.90;;;;;;5028687;28;20136;-83
2022/05/21 09:30:22;;;;;;;10.98;2.25;;;21.50;99.90;;;;;;5031980;28;20059;-83
2022/05/21 09:32:52;;;;;;;8.57;1.77;;;21.20;99.90;;;;;;5032813;28;20041;-83
2022/05/21 09:35:24;;;;;;;9.25;1.98;;;21.30;99.90;;;;;;5032836;28;20049;-83
2022/05/21 09:37:50;;;;;;;10.05;2.17;;;20.50;99.90;;;;;;5033254;28;20049;-82
2022/05/21 09:40:25;;;;;;;7.68;1.90;;;20.30;99.90;;;;;;5033090;28;20041;-82
2022/05/21 09:45:37;;;;;;;7.55;1.40;;;19.50;99.90;;;;;;5031854;28;20064;-83
2022/05/21 09:48:05;;;;;;;7.35;1.55;;;19.00;99.90;;;;;;5033161;28;20044;-84
2022/05/21 09:50:44;;;;;;;6.93;1.58;;;18.70;99.90;;;;;;5031877;28;20041;-82
2022/05/21 09:53:27;;;;;;;7.93;2.20;;;18.50;99.90;;;;;;5031730;28;20407;-82
2022/05/21 09:56:00;;;;;;;8.63;2.10;;;18.40;99.90;;;;;;5032729;28;20045;-84
2022/05/21 09:58:34;;;;;;;8.10;1.88;;;19.50;99.90;;;;;;5032060;28;20048;-84
2022/05/21 10:00:59;;;;;;;6.32;1.27;;;20.60;99.90;;;;;;5032825;28;20095;-83
2022/05/21 10:03:45;;;;;;;9.27;1.92;;;21.40;98.80;;;;;;5032773;28;20041;-83
2022/05/21 10:06:32;;;;;;;6.55;1.40;;;22.50;99.90;;;;;;5032652;28;20060;-84
2022/05/21 10:12:34;;;;;;;12.60;1.92;;;22.80;82.30;;;;;;5031431;28;20114;-83
2022/05/21 10:15:15;;;;;;;8.23;1.80;;;21.10;97.00;;;;;;5032213;28;20049;-84
2022/05/21 10:17:43;;;;;;;7.03;1.85;;;20.10;99.90;;;;;;5031797;28;20132;-82
2022/05/21 10:20:20;;;;;;;7.07;1.25;;;19.30;99.90;;;;;;5032670;28;20064;-82
2022/05/21 10:23:12;;;;;;;7.47;1.67;;;18.60;99.90;;;;;;5032560;28;20041;-85
2022/05/21 10:25:46;;;;;;;7.47;1.60;;;19.30;99.90;;;;;;5032833;28;20045;-83
2022/05/21 10:28:29;;;;;;;11.27;1.85;;;21.10;99.90;;;;;;5015073;28;20059;-82
2022/05/21 10:31:13;;;;;;;6.05;1.60;;;22.20;93.40;;;;;;5032750;28;20057;-83
2022/05/21 10:33:41;;;;;;;8.30;1.90;;;23.00;92.60;;;;;;5032244;28;20137;-83
2022/05/21 10:36:43;;;;;;;8.65;1.25;;;23.00;86.60;;;;;;5032516;28;20045;-83
2022/05/21 10:39:38;;;;;;;5.72;1.52;;;23.20;76.70;;;;;;5013897;28;20093;-83
2022/05/21 10:42:26;;;;;;;7.95;1.85;;;23.40;82.00;;;;;;5029985;28;20136;-89
2022/05/21 10:45:13;;;;;;;8.50;1.20;;;22.60;85.10;;;;;;4998492;28;20497;-82
2022/05/21 10:48:15;;;;;;;6.28;1.40;;;22.40;82.40;;;;;;5017809;28;20060;-82
2022/05/21 10:51:15;;;;;;;8.15;1.60;;;22.80;73.30;;;;;;5033921;28;20431;-83
2022/05/21 10:54:02;;;;;;;6.38;1.42;;;23.60;75.80;;;;;;5017487;28;20052;-84
2022/05/21 10:56:58;;;;;;;6.55;1.48;;;24.30;68.40;;;;;;5016415;28;20485;-82
2022/05/21 11:00:05;;;;;;;8.77;1.77;;;24.70;73.30;;;;;;5017307;28;20096;-83
2022/05/21 11:03:06;;;;;;;9.27;1.30;;;23.80;70.40;;;;;;5017167;28;20060;-84
2022/05/21 11:05:41;;;;;;;8.80;2.05;;;23.00;71.60;;;;;;5017522;28;20103;-85
2022/05/21 11:08:31;;;;;;;6.93;1.63;;;22.60;82.50;;;;;;4999970;28;20050;-82
2022/05/21 11:11:10;;;;;;;;;;;21.80;81.80;;;;;;5034107;28;20057;-84
2022/05/21 11:13:41;;;;;;;3.28;1.00;;;20.90;91.90;;;;;;5016636;28;19928;-91
2022/05/21 11:16:22;;;;;;;4.65;1.20;;;20.20;97.10;;;;;;5029166;28;20372;-82
2022/05/21 11:18:48;;;;;;;;;;;19.60;93.60;;;;;;5035047;28;20061;-85
2022/05/21 11:21:13;;;;;;;7.47;1.52;;;19.30;98.00;;;;;;5034573;28;19947;-82
2022/05/21 11:24:01;;;;;;;4.22;1.10;;;19.80;99.90;;;;;;5035601;28;20045;-84
2022/05/21 11:26:57;;;;;;;6.30;1.35;;;20.20;95.20;;;;;;5035675;28;20103;-83
2022/05/21 11:29:54;;;;;;;5.57;1.85;;;20.10;95.10;;;;;;5034426;28;20513;-83
2022/05/21 11:38:40;;;;;;;11.43;1.48;;;20.20;94.20;;;;;;5035378;28;20065;-81
2022/05/21 11:47:19;;;;;;;6.05;1.30;;;21.10;93.50;;;;;;5035155;28;20056;-83
2022/05/21 11:49:52;;;;;;;4.95;1.40;;;21.30;90.60;;;;;;5035308;28;20148;-83
2022/05/21 11:52:26;;;;;;;6.13;1.33;;;21.10;88.90;;;;;;5035027;28;20438;-84
2022/05/21 11:55:07;;;;;;;6.80;1.60;;;21.00;91.80;;;;;;5035107;28;20498;-82
2022/05/21 11:57:40;;;;;;;6.63;1.30;;;20.80;90.40;;;;;;5034228;28;20498;-82
2022/05/21 12:00:29;;;;;;;6.68;1.33;;;21.00;92.20;;;;;;5034111;28;20054;-82
2022/05/21 12:02:54;;;;;;;6.82;1.67;;;21.30;89.50;;;;;;5035052;28;20104;-81
2022/05/21 12:05:40;;;;;;;8.90;1.73;;;21.40;86.50;;;;;;5034974;28;20506;-84
2022/05/21 12:08:23;;;;;;;7.03;1.50;;;21.20;87.70;;;;;;5033823;28;20041;-83
2022/05/21 12:11:32;;;;;;;10.88;1.95;;;21.30;89.00;;;;;;5034910;28;20052;-82
2022/05/21 12:14:25;;;;;;;9.25;1.70;;;21.50;86.10;;;;;;5033166;28;20494;-82
2022/05/21 12:17:00;;;;;;;7.93;1.63;;;21.70;81.50;;;;;;5017070;28;20060;-82
2022/05/21 12:19:50;;;;;;;7.88;2.13;;;21.30;88.10;;;;;;5033629;28;20042;-82
2022/05/21 12:22:38;;;;;;;6.47;1.52;;;21.10;93.00;;;;;;5034680;28;20049;-82
2022/05/21 12:25:07;;;;;;;9.57;2.40;;;21.50;90.60;;;;;;5033268;28;20045;-82
2022/05/21 12:27:49;;;;;;;8.98;2.17;;;22.00;84.70;;;;;;5034517;28;20050;-81
2022/05/21 12:30:29;;;;;;;8.55;1.75;;;22.60;78.70;;;;;;5034757;28;20128;-82
2022/05/21 12:32:55;;;;;;;7.95;1.88;;;21.90;81.20;;;;;;5033292;28;20077;-81
2022/05/21 12:35:33;;;;;;;5.80;1.65;;;21.20;86.90;;;;;;5034346;28;20045;-82
2022/05/21 12:38:14;;;;;;;11.13;1.83;;;20.50;92.40;;;;;;5034269;28;20525;-81
2022/05/21 12:40:59;;;;;;;10.23;1.85;;;20.00;95.40;;;;;;5034386;28;20103;-82
2022/05/21 12:43:25;;;;;;;7.57;1.70;;;19.90;95.80;;;;;;5034092;28;20046;-82
2022/05/21 12:45:53;;;;;;;6.72;1.65;;;20.40;97.00;;;;;;5034215;28;20060;-81
2022/05/21 12:48:31;;;;;;;7.53;1.67;;;21.30;92.20;;;;;;5034058;28;20406;-82
2022/05/21 12:51:00;;;;;;;4.47;1.25;;;22.50;79.50;;;;;;5034236;28;20406;-81
2022/05/21 12:53:41;;;;;;;6.90;1.40;;;23.50;71.40;;;;;;5033964;28;20049;-82
2022/05/21 12:56:26;;;;;;;6.63;1.30;;;24.60;68.50;;;;;;5032847;28;20417;-85
2022/05/21 12:59:10;;;;;;;7.47;1.50;;;25.10;62.30;;;;;;5034127;28;20159;-83
2022/05/21 13:01:43;;;;;;;7.57;1.50;;;25.30;62.80;;;;;;5033117;28;20045;-82
2022/05/21 13:04:39;;;;;;;9.40;1.58;;;25.50;60.90;;;;;;5033836;28;20048;-84
2022/05/21 13:07:04;;;;;;;8.15;1.75;;;25.60;55.40;;;;;;5032821;28;20050;-82
2022/05/21 13:09:32;;;;;;;7.07;1.30;;;25.40;58.20;;;;;;5033834;28;20057;-82
2022/05/21 13:11:58;;;;;;;6.82;1.70;;;25.00;58.40;;;;;;5033801;28;20108;-82
2022/05/21 13:14:38;;;;;;;6.15;1.65;;;24.30;60.20;;;;;;5033537;28;20053;-82
2022/05/21 13:17:06;;;;;;;6.55;1.70;;;23.20;62.10;;;;;;5033658;28;20053;-89
2022/05/21 13:19:46;;;;;;;10.02;1.73;;;22.20;71.10;;;;;;5032628;28;20049;-82
2022/05/21 13:22:30;;;;;;;;;;;21.70;79.40;;;;;;5034078;28;20067;-82
2022/05/21 13:25:06;;;;;;;7.47;1.55;;;21.70;76.50;;;;;;5033483;28;19924;-81
2022/05/21 13:27:47;;;;;;;9.02;2.15;;;21.50;75.40;;;;;;5033371;28;20049;-81
2022/05/21 13:30:18;;;;;;;6.50;1.88;;;21.00;80.10;;;;;;5032071;28;20046;-81
2022/05/21 13:32:45;;;;;;;6.57;1.52;;;20.30;87.60;;;;;;5033254;28;20063;-82
2022/05/21 13:35:34;;;;;;;8.00;1.70;;;19.90;92.70;;;;;;5033450;28;20413;-82
2022/05/21 13:38:06;;;;;;;5.95;1.38;;;19.90;93.90;;;;;;5033230;28;20434;-86
2022/05/21 13:40:45;;;;;;;7.60;1.50;;;19.80;94.60;;;;;;5031859;28;20067;-83
2022/05/21 13:43:12;;;;;;;5.63;1.30;;;19.90;96.70;;;;;;5033183;28;20045;-82